sensor_id;sensor_type;location;lat;lon;timestamp;pressure;altitude;pressure_sealevel;temperature;humidity
17593;BME280;8915;51.760;14.300;2022-12-29T00:01:15;100156.81;;;5.85;100.00
17593;BME280;8915;51.760;14.300;2022-12-29T00:03:45;100149.88;;;5.85;100.00
17593;BME280;8915;51.760;14.300;2022-12-29T00:06:13;100144.72;;;5.85;100.00
17593;BME280;8915;51.760;14.300;2022-12-29T00:08:39;100138.72;;;5.82;100.00
17593;BME280;8915;51.760;14.300;2022-12-29T00:11:06;100134.50;;;5.78;100.00
17593;BME280;8915;51.760;14.300;2022-12-29T00:13:33;100131.03;;;5.79;100.00
17593;BME280;8915;51.760;14.300;2022-12-29T00:16:16;100117.28;;;5.75;100.00
17593;BME280;8915;51.760;14.300;2022-12-29T00:18:43;100119.09;;;5.70;100.00
17593;BME280;8915;51.760;14.300;2022-12-29T00:21:14;100102.72;;;5.68;100.00
17593;BME280;8915;51.760;14.300;2022-12-29T00:23:59;100107.88;;;5.68;100.00
17593;BME280;8915;51.760;14.300;2022-12-29T00:26:50;100107.06;;;5.64;100.00
17593;BME280;8915;51.760;14.300;2022-12-29T00:29:36;100108.00;;;5.60;100.00
17593;BME280;8915;51.760;14.300;2022-12-29T00:32:21;100103.69;;;5.61;100.00
17593;BME280;8915;51.760;14.300;2022-12-29T00:35:07;100112.34;;;5.58;100.00
17593;BME280;8915;51.760;14.300;2022-12-29T00:37:36;100102.88;;;5.57;100.00
17593;BME280;8915;51.760;14.300;2022-12-29T00:40:20;100092.53;;;5.56;100.00
17593;BME280;8915;51.760;14.300;2022-12-29T00:43:04;100087.38;;;5.56;100.00
17593;BME280;8915;51.760;14.300;2022-12-29T00:45:48;100077.03;;;5.56;100.00
17593;BME280;8915;51.760;14.300;2022-12-29T00:48:15;100077.91;;;5.56;100.00
17593;BME280;8915;51.760;14.300;2022-12-29T00:51:01;100064.97;;;5.55;100.00
17593;BME280;8915;51.760;14.300;2022-12-29T00:53:29;100060.69;;;5.54;100.00
17593;BME280;8915;51.760;14.300;2022-12-29T00:55:56;100063.25;;;5.54;100.00
17593;BME280;8915;51.760;14.300;2022-12-29T00:58:22;100053.75;;;5.56;100.00
17593;BME280;8915;51.760;14.300;2022-12-29T01:00:48;100048.63;;;5.54;100.00
17593;BME280;8915;51.760;14.300;2022-12-29T01:03:15;100048.66;;;5.53;100.00
17593;BME280;8915;51.760;14.300;2022-12-29T01:05:41;100037.41;;;5.54;100.00
17593;BME280;8915;51.760;14.300;2022-12-29T01:08:08;100041.72;;;5.53;100.00
17593;BME280;8915;51.760;14.300;2022-12-29T01:10:35;100033.09;;;5.54;100.00
17593;BME280;8915;51.760;14.300;2022-12-29T01:13:01;100038.28;;;5.54;100.00
17593;BME280;8915;51.760;14.300;2022-12-29T01:15:27;100040.88;;;5.53;100.00
17593;BME280;8915;51.760;14.300;2022-12-29T01:17:53;100039.13;;;5.53;100.00
17593;BME280;8915;51.760;14.300;2022-12-29T01:20:20;100043.41;;;5.56;100.00
17593;BME280;8915;51.760;14.300;2022-12-29T01:22:46;100050.28;;;5.57;100.00
17593;BME280;8915;51.760;14.300;2022-12-29T01:25:13;100039.09;;;5.58;100.00
17593;BME280;8915;51.760;14.300;2022-12-29T01:27:40;100042.56;;;5.54;100.00
17593;BME280;8915;51.760;14.300;2022-12-29T01:30:08;100045.13;;;5.57;100.00
17593;BME280;8915;51.760;14.300;2022-12-29T01:32:34;100037.38;;;5.57;100.00
17593;BME280;8915;51.760;14.300;2022-12-29T01:35:01;100040.78;;;5.59;100.00
17593;BME280;8915;51.760;14.300;2022-12-29T01:37:28;100033.03;;;5.59;100.00
17593;BME280;8915;51.760;14.300;2022-12-29T01:39:55;100033.88;;;5.59;100.00
17593;BME280;8915;51.760;14.300;2022-12-29T01:42:24;100017.47;;;5.60;100.00
17593;BME280;8915;51.760;14.300;2022-12-29T01:44:54;100027.81;;;5.60;100.00
17593;BME280;8915;51.760;14.300;2022-12-29T01:47:27;100015.75;;;5.59;100.00
17593;BME280;8915;51.760;14.300;2022-12-29T01:49:56;100035.59;;;5.60;100.00
17593;BME280;8915;51.760;14.300;2022-12-29T01:52:26;100029.47;;;5.64;100.00
17593;BME280;8915;51.760;14.300;2022-12-29T01:54:55;100020.84;;;5.65;100.00
17593;BME280;8915;51.760;14.300;2022-12-29T01:57:25;100018.22;;;5.68;100.00
17593;BME280;8915;51.760;14.300;2022-12-29T01:59:57;100016.47;;;5.69;100.00
17593;BME280;8915;51.760;14.300;2022-12-29T02:02:24;100019.00;;;5.75;100.00
17593;BME280;8915;51.760;14.300;2022-12-29T02:04:52;100018.13;;;5.75;100.00
17593;BME280;8915;51.760;14.300;2022-12-29T02:07:24;100010.34;;;5.75;100.00
17593;BME280;8915;51.760;14.300;2022-12-29T02:09:53;100012.94;;;5.75;100.00
17593;BME280;8915;51.760;14.300;2022-12-29T02:12:22;100011.22;;;5.75;100.00
17593;BME280;8915;51.760;14.300;2022-12-29T02:14:51;100005.13;;;5.78;100.00
17593;BME280;8915;51.760;14.300;2022-12-29T02:17:29;100009.41;;;5.80;100.00
17593;BME280;8915;51.760;14.300;2022-12-29T02:20:17;100008.50;;;5.83;100.00
17593;BME280;8915;51.760;14.300;2022-12-29T02:23:01;100010.19;;;5.85;100.00
17593;BME280;8915;51.760;14.300;2022-12-29T02:25:50;100012.66;;;5.93;100.00
17593;BME280;8915;51.760;14.300;2022-12-29T02:28:42;100012.63;;;5.95;100.00
17593;BME280;8915;51.760;14.300;2022-12-29T02:31:21;100003.13;;;5.97;100.00
17593;BME280;8915;51.760;14.300;2022-12-29T02:34:02;100003.97;;;5.97;100.00
17593;BME280;8915;51.760;14.300;2022-12-29T02:36:40;99998.78;;;5.99;100.00
17593;BME280;8915;51.760;14.300;2022-12-29T02:39:14;99997.06;;;5.98;100.00
17593;BME280;8915;51.760;14.300;2022-12-29T02:41:54;100000.44;;;6.01;100.00
17593;BME280;8915;51.760;14.300;2022-12-29T02:44:27;99990.06;;;6.03;100.00
17593;BME280;8915;51.760;14.300;2022-12-29T02:46:59;99986.66;;;6.02;100.00
17593;BME280;8915;51.760;14.300;2022-12-29T02:49:33;99994.34;;;6.05;100.00
17593;BME280;8915;51.760;14.300;2022-12-29T02:52:03;99994.31;;;6.09;100.00
17593;BME280;8915;51.760;14.300;2022-12-29T02:54:31;99995.19;;;6.07;100.00
17593;BME280;8915;51.760;14.300;2022-12-29T02:57:12;99991.75;;;6.07;100.00
17593;BME280;8915;51.760;14.300;2022-12-29T02:59:41;99980.53;;;6.06;100.00
17593;BME280;8915;51.760;14.300;2022-12-29T03:02:24;99999.44;;;6.10;100.00
17593;BME280;8915;51.760;14.300;2022-12-29T03:05:10;99990.84;;;6.08;100.00
17593;BME280;8915;51.760;14.300;2022-12-29T03:07:47;99992.56;;;6.11;100.00
17593;BME280;8915;51.760;14.300;2022-12-29T03:10:35;99986.50;;;6.10;100.00
17593;BME280;8915;51.760;14.300;2022-12-29T03:13:08;99987.38;;;6.11;100.00
17593;BME280;8915;51.760;14.300;2022-12-29T03:16:01;99989.97;;;6.11;100.00
17593;BME280;8915;51.760;14.300;2022-12-29T03:18:40;99984.81;;;6.09;100.00
17593;BME280;8915;51.760;14.300;2022-12-29T03:21:11;99996.84;;;6.10;100.00
17593;BME280;8915;51.760;14.300;2022-12-29T03:23:42;99996.81;;;6.13;100.00
17593;BME280;8915;51.760;14.300;2022-12-29T03:26:14;100003.69;;;6.16;100.00
17593;BME280;8915;51.760;14.300;2022-12-29T03:28:45;100001.09;;;6.16;100.00
17593;BME280;8915;51.760;14.300;2022-12-29T03:31:19;99998.50;;;6.16;100.00
17593;BME280;8915;51.760;14.300;2022-12-29T03:33:49;99978.63;;;6.18;100.00
17593;BME280;8915;51.760;14.300;2022-12-29T03:36:22;99979.44;;;6.18;100.00
17593;BME280;8915;51.760;14.300;2022-12-29T03:38:56;99968.25;;;6.18;100.00
17593;BME280;8915;51.760;14.300;2022-12-29T03:41:28;99967.38;;;6.17;100.00
17593;BME280;8915;51.760;14.300;2022-12-29T03:43:57;99972.63;;;6.16;100.00
17593;BME280;8915;51.760;14.300;2022-12-29T03:46:24;99957.94;;;6.15;100.00
17593;BME280;8915;51.760;14.300;2022-12-29T03:48:52;99956.22;;;6.14;100.00
17593;BME280;8915;51.760;14.300;2022-12-29T03:51:18;99954.53;;;6.13;100.00
17593;BME280;8915;51.760;14.300;2022-12-29T03:53:44;99952.84;;;6.10;100.00
17593;BME280;8915;51.760;14.300;2022-12-29T03:56:11;99949.34;;;6.14;100.00
17593;BME280;8915;51.760;14.300;2022-12-29T03:58:38;99953.63;;;6.14;100.00
17593;BME280;8915;51.760;14.300;2022-12-29T04:01:10;99946.78;;;6.13;100.00
17593;BME280;8915;51.760;14.300;2022-12-29T04:03:38;99947.56;;;6.16;100.00
17593;BME280;8915;51.760;14.300;2022-12-29T04:06:06;99940.63;;;6.18;100.00
17593;BME280;8915;51.760;14.300;2022-12-29T04:08:38;99935.47;;;6.17;100.00
17593;BME280;8915;51.760;14.300;2022-12-29T04:11:05;99936.28;;;6.19;100.00
17593;BME280;8915;51.760;14.300;2022-12-29T04:13:32;99938.88;;;6.19;100.00
17593;BME280;8915;51.760;14.300;2022-12-29T04:15:59;99938.84;;;6.20;100.00
17593;BME280;8915;51.760;14.300;2022-12-29T04:18:26;99941.41;;;6.22;100.00
17593;BME280;8915;51.760;14.300;2022-12-29T04:20:52;99948.34;;;6.21;100.00
17593;BME280;8915;51.760;14.300;2022-12-29T04:23:33;99937.94;;;6.24;100.00
17593;BME280;8915;51.760;14.300;2022-12-29T04:26:02;99937.03;;;6.25;100.00
17593;BME280;8915;51.760;14.300;2022-12-29T04:28:30;99947.41;;;6.24;100.00
17593;BME280;8915;51.760;14.300;2022-12-29T04:30:56;99942.25;;;6.24;100.00
17593;BME280;8915;51.760;14.300;2022-12-29T04:33:26;99944.78;;;6.27;100.00
17593;BME280;8915;51.760;14.300;2022-12-29T04:35:52;99950.78;;;6.28;100.00
17593;BME280;8915;51.760;14.300;2022-12-29T04:38:21;99941.22;;;6.31;100.00
17593;BME280;8915;51.760;14.300;2022-12-29T04:40:50;99936.03;;;6.33;100.00
17593;BME280;8915;51.760;14.300;2022-12-29T04:43:19;99925.59;;;6.37;100.00
17593;BME280;8915;51.760;14.300;2022-12-29T04:46:12;99928.13;;;6.40;100.00
17593;BME280;8915;51.760;14.300;2022-12-29T04:48:46;99926.41;;;6.39;100.00
17593;BME280;8915;51.760;14.300;2022-12-29T04:51:28;99925.53;;;6.40;100.00
17593;BME280;8915;51.760;14.300;2022-12-29T04:53:55;99924.59;;;6.43;100.00
17593;BME280;8915;51.760;14.300;2022-12-29T04:56:24;99926.34;;;6.44;100.00
17593;BME280;8915;51.760;14.300;2022-12-29T04:58:50;99924.56;;;6.46;100.00
17593;BME280;8915;51.760;14.300;2022-12-29T05:01:19;99921.81;;;6.52;100.00
17593;BME280;8915;51.760;14.300;2022-12-29T05:03:46;99926.97;;;6.54;100.00
17593;BME280;8915;51.760;14.300;2022-12-29T05:06:12;99923.50;;;6.56;100.00
17593;BME280;8915;51.760;14.300;2022-12-29T05:08:38;99938.06;;;6.60;100.00
17593;BME280;8915;51.760;14.300;2022-12-29T05:11:05;99934.53;;;6.63;100.00
17593;BME280;8915;51.760;14.300;2022-12-29T05:13:32;99931.06;;;6.66;100.00
17593;BME280;8915;51.760;14.300;2022-12-29T05:15:59;99935.31;;;6.68;100.00
17593;BME280;8915;51.760;14.300;2022-12-29T05:18:26;99937.00;;;6.71;100.00
17593;BME280;8915;51.760;14.300;2022-12-29T05:20:53;99931.75;;;6.74;100.00
17593;BME280;8915;51.760;14.300;2022-12-29T05:23:21;99941.16;;;6.78;100.00
17593;BME280;8915;51.760;14.300;2022-12-29T05:26:08;99945.41;;;6.80;100.00
17593;BME280;8915;51.760;14.300;2022-12-29T05:28:48;99937.53;;;6.85;100.00
17593;BME280;8915;51.760;14.300;2022-12-29T05:31:18;99938.34;;;6.87;100.00
17593;BME280;8915;51.760;14.300;2022-12-29T05:33:46;99938.34;;;6.89;100.00
17593;BME280;8915;51.760;14.300;2022-12-29T05:36:13;99938.28;;;6.92;100.00
17593;BME280;8915;51.760;14.300;2022-12-29T05:38:45;99930.50;;;6.92;100.00
17593;BME280;8915;51.760;14.300;2022-12-29T05:41:12;99928.69;;;6.95;100.00
17593;BME280;8915;51.760;14.300;2022-12-29T05:44:01;99938.88;;;7.03;100.00
17593;BME280;8915;51.760;14.300;2022-12-29T05:46:31;99932.00;;;7.02;100.00
17593;BME280;8915;51.760;14.300;2022-12-29T05:49:08;99937.97;;;7.06;100.00
17593;BME280;8915;51.760;14.300;2022-12-29T05:51:51;99922.38;;;7.07;100.00
17593;BME280;8915;51.760;14.300;2022-12-29T05:54:17;99929.25;;;7.08;100.00
17593;BME280;8915;51.760;14.300;2022-12-29T05:56:44;99931.78;;;7.11;100.00
17593;BME280;8915;51.760;14.300;2022-12-29T05:59:13;99924.91;;;7.09;100.00
17593;BME280;8915;51.760;14.300;2022-12-29T06:01:40;99924.88;;;7.10;100.00
17593;BME280;8915;51.760;14.300;2022-12-29T06:04:06;99911.06;;;7.10;100.00
17593;BME280;8915;51.760;14.300;2022-12-29T06:06:33;99902.47;;;7.09;100.00
17593;BME280;8915;51.760;14.300;2022-12-29T06:08:59;99891.28;;;7.07;100.00
17593;BME280;8915;51.760;14.300;2022-12-29T06:11:26;99899.00;;;7.09;100.00
17593;BME280;8915;51.760;14.300;2022-12-29T06:13:55;99903.38;;;7.07;100.00
17593;BME280;8915;51.760;14.300;2022-12-29T06:16:24;99908.53;;;7.08;100.00
17593;BME280;8915;51.760;14.300;2022-12-29T06:18:55;99915.38;;;7.11;100.00
17593;BME280;8915;51.760;14.300;2022-12-29T06:21:21;99915.38;;;7.11;100.00
17593;BME280;8915;51.760;14.300;2022-12-29T06:23:48;99917.88;;;7.14;100.00
17593;BME280;8915;51.760;14.300;2022-12-29T06:26:14;99903.22;;;7.14;100.00
17593;BME280;8915;51.760;14.300;2022-12-29T06:28:40;99901.47;;;7.15;100.00
17593;BME280;8915;51.760;14.300;2022-12-29T06:31:09;99896.22;;;7.18;100.00
17593;BME280;8915;51.760;14.300;2022-12-29T06:33:37;99902.19;;;7.20;100.00
17593;BME280;8915;51.760;14.300;2022-12-29T06:36:04;99896.06;;;7.23;100.00
17593;BME280;8915;51.760;14.300;2022-12-29T06:38:30;99888.19;;;7.27;100.00
17593;BME280;8915;51.760;14.300;2022-12-29T06:40:58;99893.38;;;7.27;100.00
17593;BME280;8915;51.760;14.300;2022-12-29T06:43:34;99893.38;;;7.27;100.00
17593;BME280;8915;51.760;14.300;2022-12-29T06:46:07;99889.00;;;7.29;100.00
17593;BME280;8915;51.760;14.300;2022-12-29T06:48:33;99897.59;;;7.31;100.00
17593;BME280;8915;51.760;14.300;2022-12-29T06:51:01;99904.59;;;7.28;100.00
17593;BME280;8915;51.760;14.300;2022-12-29T06:53:27;99907.34;;;7.22;100.00
17593;BME280;8915;51.760;14.300;2022-12-29T06:55:54;99903.16;;;7.16;100.00
17593;BME280;8915;51.760;14.300;2022-12-29T06:58:21;99911.13;;;7.07;100.00
17593;BME280;8915;51.760;14.300;2022-12-29T07:00:48;99900.06;;;7.00;100.00
17593;BME280;8915;51.760;14.300;2022-12-29T07:03:14;99894.28;;;6.89;100.00
17593;BME280;8915;51.760;14.300;2022-12-29T07:05:40;99904.00;;;6.79;100.00
17593;BME280;8915;51.760;14.300;2022-12-29T07:08:08;99906.63;;;6.77;100.00
17593;BME280;8915;51.760;14.300;2022-12-29T07:10:34;99909.28;;;6.74;100.00
17593;BME280;8915;51.760;14.300;2022-12-29T07:13:01;99919.69;;;6.73;100.00
17593;BME280;8915;51.760;14.300;2022-12-29T07:15:33;99912.78;;;6.72;100.00
17593;BME280;8915;51.760;14.300;2022-12-29T07:17:59;99929.19;;;6.72;100.00
17593;BME280;8915;51.760;14.300;2022-12-29T07:20:28;99922.44;;;6.65;100.00
17593;BME280;8915;51.760;14.300;2022-12-29T07:22:54;99929.47;;;6.58;100.00
17593;BME280;8915;51.760;14.300;2022-12-29T07:25:22;99927.88;;;6.53;100.00
17593;BME280;8915;51.760;14.300;2022-12-29T07:27:49;99929.75;;;6.44;100.00
17593;BME280;8915;51.760;14.300;2022-12-29T07:30:15;99936.78;;;6.39;100.00
17593;BME280;8915;51.760;14.300;2022-12-29T07:32:42;99941.19;;;6.34;100.00
17593;BME280;8915;51.760;14.300;2022-12-29T07:35:08;99929.16;;;6.32;100.00
17593;BME280;8915;51.760;14.300;2022-12-29T07:37:35;99927.44;;;6.31;100.00
17593;BME280;8915;51.760;14.300;2022-12-29T07:40:02;99930.97;;;6.28;100.00
17593;BME280;8915;51.760;14.300;2022-12-29T07:42:30;99916.31;;;6.25;100.00
17593;BME280;8915;51.760;14.300;2022-12-29T07:44:58;99932.75;;;6.24;100.00
17593;BME280;8915;51.760;14.300;2022-12-29T07:47:34;99922.41;;;6.24;100.00
17593;BME280;8915;51.760;14.300;2022-12-29T07:50:01;99934.44;;;6.25;100.00
17593;BME280;8915;51.760;14.300;2022-12-29T07:52:27;99932.75;;;6.24;100.00
17593;BME280;8915;51.760;14.300;2022-12-29T07:54:54;99930.25;;;6.20;100.00
17593;BME280;8915;51.760;14.300;2022-12-29T07:57:20;99925.88;;;6.23;100.00
17593;BME280;8915;51.760;14.300;2022-12-29T07:59:48;99932.75;;;6.24;100.00
17593;BME280;8915;51.760;14.300;2022-12-29T08:02:15;99936.16;;;6.27;100.00
17593;BME280;8915;51.760;14.300;2022-12-29T08:04:41;99938.78;;;6.25;100.00
17593;BME280;8915;51.760;14.300;2022-12-29T08:07:07;99921.44;;;6.29;100.00
17593;BME280;8915;51.760;14.300;2022-12-29T08:09:34;99927.50;;;6.28;100.00
17593;BME280;8915;51.760;14.300;2022-12-29T08:12:00;99930.13;;;6.26;100.00
17593;BME280;8915;51.760;14.300;2022-12-29T08:14:28;99930.09;;;6.28;100.00
17593;BME280;8915;51.760;14.300;2022-12-29T08:16:55;99919.69;;;6.29;100.00
17593;BME280;8915;51.760;14.300;2022-12-29T08:19:22;99924.81;;;6.32;100.00
17593;BME280;8915;51.760;14.300;2022-12-29T08:21:48;99923.97;;;6.33;100.00
17593;BME280;8915;51.760;14.300;2022-12-29T08:24:14;99923.06;;;6.34;100.00
17593;BME280;8915;51.760;14.300;2022-12-29T08:26:41;99925.66;;;6.34;100.00
17593;BME280;8915;51.760;14.300;2022-12-29T08:29:07;99927.16;;;6.44;100.00
17593;BME280;8915;51.760;14.300;2022-12-29T08:31:34;99930.59;;;6.45;100.00
17593;BME280;8915;51.760;14.300;2022-12-29T08:34:02;99923.72;;;6.46;100.00
17593;BME280;8915;51.760;14.300;2022-12-29T08:36:29;99930.59;;;6.45;100.00
17593;BME280;8915;51.760;14.300;2022-12-29T08:38:56;99932.94;;;6.57;100.00
17593;BME280;8915;51.760;14.300;2022-12-29T08:41:23;99933.81;;;6.58;100.00
17593;BME280;8915;51.760;14.300;2022-12-29T08:43:49;99933.72;;;6.61;100.00
17593;BME280;8915;51.760;14.300;2022-12-29T08:46:16;99944.00;;;6.66;100.00
17593;BME280;8915;51.760;14.300;2022-12-29T08:48:43;99954.16;;;6.76;100.00
17593;BME280;8915;51.760;14.300;2022-12-29T08:51:11;99941.97;;;6.80;100.00
17593;BME280;8915;51.760;14.300;2022-12-29T08:53:37;99943.72;;;6.79;100.00
17593;BME280;8915;51.760;14.300;2022-12-29T08:56:04;99935.03;;;6.80;100.00
17593;BME280;8915;51.760;14.300;2022-12-29T08:58:39;99940.09;;;6.88;100.00
17593;BME280;8915;51.760;14.300;2022-12-29T09:01:06;99943.53;;;6.87;100.00
17593;BME280;8915;51.760;14.300;2022-12-29T09:03:32;99942.66;;;6.90;100.00
17593;BME280;8915;51.760;14.300;2022-12-29T09:05:58;99941.66;;;6.95;100.00
17593;BME280;8915;51.760;14.300;2022-12-29T09:08:26;99938.09;;;6.99;100.00
17593;BME280;8915;51.760;14.300;2022-12-29T09:10:52;99939.66;;;7.07;100.00
17593;BME280;8915;51.760;14.300;2022-12-29T09:13:19;99936.94;;;7.13;100.00
17593;BME280;8915;51.760;14.300;2022-12-29T09:15:46;99934.97;;;7.23;100.00
17593;BME280;8915;51.760;14.300;2022-12-29T09:18:12;99943.47;;;7.29;100.00
17593;BME280;8915;51.760;14.300;2022-12-29T09:20:38;99954.50;;;7.39;100.00
17593;BME280;8915;51.760;14.300;2022-12-29T09:23:05;99944.88;;;7.43;100.00
17593;BME280;8915;51.760;14.300;2022-12-29T09:25:33;99930.91;;;7.48;100.00
17593;BME280;8915;51.760;14.300;2022-12-29T09:27:59;99939.31;;;7.58;100.00
17593;BME280;8915;51.760;14.300;2022-12-29T09:30:29;99948.47;;;7.73;100.00
17593;BME280;8915;51.760;14.300;2022-12-29T09:32:55;99942.97;;;7.85;100.00
17593;BME280;8915;51.760;14.300;2022-12-29T09:35:21;99949.59;;;7.97;100.00
17593;BME280;8915;51.760;14.300;2022-12-29T09:37:48;99944.94;;;8.08;100.00
17593;BME280;8915;51.760;14.300;2022-12-29T09:40:24;99943.59;;;8.26;100.00
17593;BME280;8915;51.760;14.300;2022-12-29T09:43:07;99943.66;;;8.56;100.00
17593;BME280;8915;51.760;14.300;2022-12-29T09:45:42;99944.03;;;8.74;100.00
17593;BME280;8915;51.760;14.300;2022-12-29T09:48:14;99952.13;;;8.93;100.00
17593;BME280;8915;51.760;14.300;2022-12-29T09:50:44;99945.06;;;8.98;100.00
17593;BME280;8915;51.760;14.300;2022-12-29T09:53:15;99939.09;;;8.94;100.00
17593;BME280;8915;51.760;14.300;2022-12-29T09:55:46;99946.63;;;9.03;100.00
17593;BME280;8915;51.760;14.300;2022-12-29T09:58:21;99939.47;;;9.10;100.00
17593;BME280;8915;51.760;14.300;2022-12-29T10:00:52;99936.88;;;9.10;100.00
17593;BME280;8915;51.760;14.300;2022-12-29T10:03:22;99932.34;;;9.17;100.00
17593;BME280;8915;51.760;14.300;2022-12-29T10:05:53;99936.44;;;9.24;100.00
17593;BME280;8915;51.760;14.300;2022-12-29T10:08:28;99928.66;;;9.24;100.00
17593;BME280;8915;51.760;14.300;2022-12-29T10:11:03;99935.09;;;9.39;100.00
17593;BME280;8915;51.760;14.300;2022-12-29T10:13:41;99935.75;;;9.45;100.00
17593;BME280;8915;51.760;14.300;2022-12-29T10:16:11;99933.28;;;9.41;100.00
17593;BME280;8915;51.760;14.300;2022-12-29T10:19:00;99930.78;;;9.39;100.00
17593;BME280;8915;51.760;14.300;2022-12-29T10:21:42;99911.53;;;9.43;100.00
17593;BME280;8915;51.760;14.300;2022-12-29T10:24:13;99912.16;;;9.52;100.00
17593;BME280;8915;51.760;14.300;2022-12-29T10:26:41;99913.44;;;9.65;100.00
17593;BME280;8915;51.760;14.300;2022-12-29T10:29:14;99901.75;;;9.77;100.00
17593;BME280;8915;51.760;14.300;2022-12-29T10:31:44;99907.56;;;9.85;100.00
17593;BME280;8915;51.760;14.300;2022-12-29T10:34:17;99903.09;;;9.89;100.00
17593;BME280;8915;51.760;14.300;2022-12-29T10:36:47;99908.50;;;9.82;100.00
17593;BME280;8915;51.760;14.300;2022-12-29T10:39:16;99898.78;;;9.88;100.00
17593;BME280;8915;51.760;14.300;2022-12-29T10:41:48;99913.44;;;9.90;100.00
17593;BME280;8915;51.760;14.300;2022-12-29T10:44:18;99911.53;;;9.95;100.00
17593;BME280;8915;51.760;14.300;2022-12-29T10:46:54;99906.16;;;10.00;100.00
17593;BME280;8915;51.760;14.300;2022-12-29T10:49:21;99914.56;;;10.08;100.00
17593;BME280;8915;51.760;14.300;2022-12-29T10:51:55;99908.19;;;10.17;100.00
17593;BME280;8915;51.760;14.300;2022-12-29T10:54:26;99907.31;;;10.16;100.00
17593;BME280;8915;51.760;14.300;2022-12-29T10:56:56;99911.34;;;10.25;100.00
17593;BME280;8915;51.760;14.300;2022-12-29T10:59:30;99904.31;;;10.27;100.00
17593;BME280;8915;51.760;14.300;2022-12-29T11:02:00;99906.03;;;10.28;100.00
17593;BME280;8915;51.760;14.300;2022-12-29T11:04:40;99901.72;;;10.27;100.00
17593;BME280;8915;51.760;14.300;2022-12-29T11:07:09;99898.25;;;10.27;100.00
17593;BME280;8915;51.760;14.300;2022-12-29T11:09:38;99890.13;;;10.36;100.00
17593;BME280;8915;51.760;14.300;2022-12-29T11:12:22;99891.16;;;10.32;100.00
17593;BME280;8915;51.760;14.300;2022-12-29T11:15:11;99898.78;;;10.38;100.00
17593;BME280;8915;51.760;14.300;2022-12-29T11:17:44;99891.44;;;10.48;100.00
17593;BME280;8915;51.760;14.300;2022-12-29T11:20:32;99884.41;;;10.50;100.00
17593;BME280;8915;51.760;14.300;2022-12-29T11:22:58;99888.56;;;10.55;100.00
17593;BME280;8915;51.760;14.300;2022-12-29T11:25:26;99879.72;;;10.59;100.00
17593;BME280;8915;51.760;14.300;2022-12-29T11:28:00;99876.25;;;10.59;100.00
17593;BME280;8915;51.760;14.300;2022-12-29T11:30:30;99872.63;;;10.63;100.00
17593;BME280;8915;51.760;14.300;2022-12-29T11:32:57;99874.13;;;10.69;100.00
17593;BME280;8915;51.760;14.300;2022-12-29T11:35:33;99872.03;;;10.78;100.00
17593;BME280;8915;51.760;14.300;2022-12-29T11:38:01;99870.94;;;10.84;100.00
17593;BME280;8915;51.760;14.300;2022-12-29T11:40:28;99868.28;;;10.86;100.00
17593;BME280;8915;51.760;14.300;2022-12-29T11:42:57;99871.72;;;10.86;100.00
17593;BME280;8915;51.760;14.300;2022-12-29T11:45:26;99866.41;;;10.89;100.00
17593;BME280;8915;51.760;14.300;2022-12-29T11:47:56;99871.34;;;10.95;100.00
17593;BME280;8915;51.760;14.300;2022-12-29T11:50:26;99869.41;;;11.01;100.00
17593;BME280;8915;51.760;14.300;2022-12-29T11:52:58;99862.38;;;11.03;100.00
17593;BME280;8915;51.760;14.300;2022-12-29T11:55:27;99872.81;;;11.03;100.00
17593;BME280;8915;51.760;14.300;2022-12-29T11:57:57;99868.16;;;11.11;100.00
17593;BME280;8915;51.760;14.300;2022-12-29T12:00:27;99869.66;;;11.16;100.00
17593;BME280;8915;51.760;14.300;2022-12-29T12:02:59;99859.28;;;11.15;100.00
17593;BME280;8915;51.760;14.300;2022-12-29T12:05:35;99853.16;;;11.16;100.00
17593;BME280;8915;51.760;14.300;2022-12-29T12:08:09;99863.59;;;11.16;100.00
17593;BME280;8915;51.760;14.300;2022-12-29T12:10:42;99861.69;;;11.20;100.00
17593;BME280;8915;51.760;14.300;2022-12-29T12:13:18;99863.25;;;11.24;100.00
17593;BME280;8915;51.760;14.300;2022-12-29T12:15:52;99858.53;;;11.33;100.00
17593;BME280;8915;51.760;14.300;2022-12-29T12:18:30;99865.00;;;11.45;100.00
17593;BME280;8915;51.760;14.300;2022-12-29T12:21:08;99863.91;;;11.51;100.00
17593;BME280;8915;51.760;14.300;2022-12-29T12:23:43;99867.09;;;11.58;100.00
17593;BME280;8915;51.760;14.300;2022-12-29T12:26:16;99863.78;;;11.54;100.00
17593;BME280;8915;51.760;14.300;2022-12-29T12:28:49;99864.84;;;11.48;100.00
17593;BME280;8915;51.760;14.300;2022-12-29T12:31:26;99857.25;;;11.44;100.00
17593;BME280;8915;51.760;14.300;2022-12-29T12:34:02;99853.75;;;11.43;100.00
17593;BME280;8915;51.760;14.300;2022-12-29T12:36:46;99856.47;;;11.42;100.00
17593;BME280;8915;51.760;14.300;2022-12-29T12:39:25;99849.72;;;11.36;100.00
17593;BME280;8915;51.760;14.300;2022-12-29T12:42:00;99850.63;;;11.35;100.00
17593;BME280;8915;51.760;14.300;2022-12-29T12:44:38;99828.13;;;11.32;100.00
17593;BME280;8915;51.760;14.300;2022-12-29T12:47:20;99840.19;;;11.35;100.00
17593;BME280;8915;51.760;14.300;2022-12-29T12:50:26;99852.41;;;11.34;100.00
17593;BME280;8915;51.760;14.300;2022-12-29T12:55:52;99848.22;;;11.30;100.00
17593;BME280;8915;51.760;14.300;2022-12-29T12:58:28;99845.88;;;11.24;100.00
17593;BME280;8915;51.760;14.300;2022-12-29T13:01:11;99859.88;;;11.22;100.00
17593;BME280;8915;51.760;14.300;2022-12-29T13:03:50;99838.81;;;11.26;100.00
17593;BME280;8915;51.760;14.300;2022-12-29T13:06:28;99850.38;;;11.21;100.00
17593;BME280;8915;51.760;14.300;2022-12-29T13:12:02;99852.31;;;11.15;100.00
17593;BME280;8915;51.760;14.300;2022-12-29T13:14:40;99858.50;;;11.13;100.00
17593;BME280;8915;51.760;14.300;2022-12-29T13:17:15;99858.19;;;11.21;100.00
17593;BME280;8915;51.760;14.300;2022-12-29T13:19:50;99859.94;;;11.20;100.00
17593;BME280;8915;51.760;14.300;2022-12-29T13:22:25;99860.81;;;11.21;100.00